Weather reports worldwide

Advertisment
Toulon Arsenal, France (7660): temperature & dewpoint: 13.03.2019 10:00:00 - 19.03.2019 10:00:00 (CET)Toulon Arsenal, France (7660): wind speed & gusts: 13.03.2019 10:00:00 - 19.03.2019 10:00:00 (CET)Toulon Arsenal, France (7660): wind direction: 13.03.2019 10:00:00 - 19.03.2019 10:00:00 (CET)Toulon Arsenal, France (7660): precipitation: 13.03.2019 10:00:00 - 19.03.2019 10:00:00 (CET)
Date & Time tt [°C] td [°C] ff [km/h] ff [kn] fx [km/h] fx [kn] dd rr [mm]
19.03.2019 10:00:00 - - - - - - - -
19.03.2019 09:00:00 13,6 -0,5 11 6 26 14 E 0,0
19.03.2019 08:00:00 7,8 0,0 2 1 5 3 WNW 0,0
19.03.2019 07:00:00 3,4 -2,2 2 1 4 2 N -
19.03.2019 06:00:00 3,8 -2,8 0 0 5 3 N 0,0
19.03.2019 05:00:00 4,4 -3,2 4 2 5 3 NW 0,0
19.03.2019 04:00:00 5,2 -4,1 2 1 8 4 NNW 0,0
19.03.2019 03:00:00 6,4 -5,0 2 1 11 6 WNW 0,0
19.03.2019 02:00:00 8,6 -5,7 4 2 11 6 NNW 0,0
19.03.2019 01:00:00 9,5 -5,2 8 4 18 10 W -
19.03.2019 00:00:00 10,1 -6,7 5 3 22 12 NW 0,0
18.03.2019 23:00:00 11,6 -7,3 13 7 37 20 W 0,0
18.03.2019 22:00:00 11,0 -5,5 5 3 24 13 W 0,0
18.03.2019 21:00:00 11,5 -5,5 5 3 28 15 NE 0,0
18.03.2019 20:00:00 12,3 -4,4 13 7 41 22 WNW 0,0
18.03.2019 19:00:00 13,2 -4,5 18 10 42 23 WNW -
18.03.2019 18:00:00 14,9 -4,5 22 12 46 25 WNW 0,0
18.03.2019 17:00:00 16,6 -6,5 16 9 52 28 WNW 0,0
18.03.2019 16:00:00 16,7 -6,4 22 12 52 28 WNW 0,0
18.03.2019 15:00:00 17,1 -6,7 21 11 44 24 WNW 0,0
18.03.2019 14:00:00 16,8 -5,7 16 9 42 23 WNW 0,0
18.03.2019 13:00:00 16,6 -5,2 16 9 44 24 W -
18.03.2019 12:00:00 15,4 -4,6 18 10 48 26 W 0,0
18.03.2019 11:00:00 14,7 -4,1 22 12 55 30 WNW 0,0
18.03.2019 10:00:00 12,5 -4,2 28 15 55 30 WNW 0,0
18.03.2019 09:00:00 11,0 -2,4 22 12 46 25 W 0,0
18.03.2019 08:00:00 9,3 -2,0 22 12 44 24 W 0,0
18.03.2019 07:00:00 8,7 -2,3 22 12 44 24 W -
18.03.2019 06:00:00 8,9 -2,7 18 10 48 26 W 0,0
18.03.2019 05:00:00 9,6 -4,0 21 11 42 23 WNW 0,0
18.03.2019 04:00:00 9,8 -4,6 18 10 50 27 WNW 0,0
18.03.2019 03:00:00 9,9 -2,8 21 11 48 26 WNW 0,0
18.03.2019 02:00:00 10,5 -1,9 26 14 54 29 WNW 0,0
18.03.2019 01:00:00 11,2 -0,3 16 9 50 27 W -
18.03.2019 00:00:00 12,2 -2,1 16 9 42 23 WNW 0,0
17.03.2019 23:00:00 13,5 -0,6 22 12 46 25 W 0,0
17.03.2019 22:00:00 14,7 2,2 18 10 42 23 WNW 0,0
17.03.2019 21:00:00 15,1 5,9 15 8 29 16 WNW 0,0
17.03.2019 20:00:00 14,7 8,0 11 6 26 14 W 0,0
17.03.2019 19:00:00 14,4 9,8 15 8 28 15 W -
17.03.2019 18:00:00 15,3 10,3 9 5 28 15 W 0,0
17.03.2019 17:00:00 15,6 9,7 15 8 28 15 W 0,0
17.03.2019 16:00:00 15,0 10,2 9 5 28 15 SE 0,0
17.03.2019 15:00:00 15,0 10,4 22 12 35 19 SE 0,0
17.03.2019 14:00:00 15,9 10,4 15 8 26 14 SSE 0,0
17.03.2019 13:00:00 15,1 9,7 13 7 31 17 ESE -
17.03.2019 12:00:00 15,6 9,9 15 8 34 18 SE 0,0
17.03.2019 11:00:00 15,8 9,2 13 7 31 17 E 0,0
17.03.2019 10:00:00 15,0 8,9 15 8 28 15 E 0,0
17.03.2019 09:00:00 13,0 9,1 16 9 28 15 E 0,0
17.03.2019 08:00:00 12,8 9,1 13 7 39 21 E 0,0
17.03.2019 07:00:00 12,5 9,3 13 7 26 14 E -
17.03.2019 06:00:00 11,5 8,7 9 5 21 11 E 0,0
17.03.2019 05:00:00 9,4 7,7 5 3 11 6 ENE 0,0
17.03.2019 04:00:00 10,0 7,4 5 3 21 11 ENE 0,0
17.03.2019 03:00:00 8,5 6,8 4 2 13 7 E 0,0
17.03.2019 02:00:00 8,8 6,6 4 2 9 5 NE 0,0
17.03.2019 01:00:00 8,2 6,3 4 2 5 3 NNE -
17.03.2019 00:00:00 9,2 6,6 4 2 11 6 NNE 0,0
16.03.2019 23:00:00 9,6 7,2 4 2 9 5 N 0,0
16.03.2019 22:00:00 10,3 7,9 4 2 8 4 N 0,0
16.03.2019 21:00:00 12,9 9,0 4 2 15 8 SSW 0,0
16.03.2019 20:00:00 14,1 8,3 8 4 15 8 E 0,0
16.03.2019 19:00:00 14,2 6,5 4 2 29 16 N -
16.03.2019 18:00:00 15,8 7,8 16 9 42 23 W 0,0
16.03.2019 17:00:00 16,5 7,7 18 10 42 23 W 0,0
16.03.2019 16:00:00 16,5 8,9 21 11 44 24 W 0,0
16.03.2019 15:00:00 18,0 8,5 16 9 41 22 WSW 0,0
16.03.2019 14:00:00 17,3 9,0 22 12 46 25 W 0,0
16.03.2019 13:00:00 18,1 7,8 26 14 50 27 W -
16.03.2019 12:00:00 17,7 6,5 22 12 39 21 W 0,0
16.03.2019 11:00:00 18,5 4,3 18 10 35 19 W 0,0
16.03.2019 10:00:00 17,0 4,0 18 10 35 19 W 0,0
16.03.2019 09:00:00 15,3 4,0 15 8 41 22 W 0,0
16.03.2019 08:00:00 13,7 4,6 15 8 29 16 W 0,0
16.03.2019 07:00:00 13,0 4,7 13 7 35 19 W -
16.03.2019 06:00:00 13,2 5,4 13 7 34 18 W 0,0
16.03.2019 05:00:00 13,7 4,6 13 7 31 17 W 0,0
16.03.2019 04:00:00 14,4 3,5 15 8 29 16 W 0,0
16.03.2019 03:00:00 15,1 3,6 15 8 29 16 W 0,0
16.03.2019 02:00:00 15,1 4,2 13 7 31 17 W 0,0
16.03.2019 01:00:00 15,8 4,2 16 9 41 22 W -
16.03.2019 00:00:00 16,3 4,0 16 9 41 22 WSW 0,0
15.03.2019 23:00:00 16,5 4,2 18 10 44 24 W 0,0
15.03.2019 22:00:00 17,4 3,3 18 10 48 26 W 0,0
15.03.2019 21:00:00 17,8 3,6 18 10 42 23 W 0,0
15.03.2019 20:00:00 18,2 3,6 16 9 41 22 W 0,0
15.03.2019 19:00:00 19,4 2,7 22 12 48 26 WNW -
15.03.2019 18:00:00 20,6 2,9 28 15 65 35 WNW 0,0
15.03.2019 17:00:00 21,4 2,6 28 15 81 44 WNW 0,0
15.03.2019 16:00:00 21,6 2,3 39 21 96 52 WNW 0,0
15.03.2019 15:00:00 22,0 2,6 34 18 80 43 WNW 0,0
15.03.2019 14:00:00 21,7 3,8 35 19 78 42 WNW 0,0
15.03.2019 13:00:00 20,6 5,0 31 17 70 38 WNW -
15.03.2019 12:00:00 18,4 6,2 29 16 61 33 WNW 0,0
15.03.2019 11:00:00 16,0 6,4 22 12 55 30 W 0,0
15.03.2019 10:00:00 16,1 6,5 24 13 59 32 W 0,0
15.03.2019 09:00:00 13,9 5,5 28 15 55 30 W 0,0
15.03.2019 08:00:00 12,8 5,5 22 12 44 24 W 0,0
15.03.2019 07:00:00 12,4 5,3 18 10 44 24 W -
15.03.2019 06:00:00 12,3 5,2 24 13 54 29 W 0,0
15.03.2019 05:00:00 12,4 5,1 22 12 48 26 W 0,0
15.03.2019 04:00:00 12,3 4,5 21 11 52 28 W 0,0
15.03.2019 03:00:00 12,6 4,0 28 15 63 34 W 0,0
15.03.2019 02:00:00 12,8 4,0 29 16 81 44 WNW 0,0
15.03.2019 01:00:00 13,0 4,2 31 17 72 39 WNW -
15.03.2019 00:00:00 13,2 4,1 34 18 68 37 WNW 0,0
14.03.2019 23:00:00 13,3 4,4 39 21 81 44 WNW 0,0
14.03.2019 22:00:00 13,5 4,1 41 22 81 44 WNW 0,0
14.03.2019 21:00:00 13,7 3,7 46 25 89 48 WNW 0,0
14.03.2019 20:00:00 14,0 3,2 37 20 74 40 WNW 0,0
14.03.2019 19:00:00 14,1 2,9 29 16 59 32 W -
14.03.2019 18:00:00 14,2 4,5 26 14 61 33 W 0,0
14.03.2019 17:00:00 14,4 5,5 28 15 59 32 W 0,0
14.03.2019 16:00:00 16,5 -0,7 26 14 61 33 W 0,0
14.03.2019 15:00:00 15,8 -0,9 28 15 67 36 W 0,0
14.03.2019 14:00:00 15,8 -1,3 28 15 68 37 W 0,0
14.03.2019 13:00:00 14,7 -0,2 29 16 61 33 W -
14.03.2019 12:00:00 13,9 0,2 26 14 61 33 W 0,0
14.03.2019 11:00:00 13,8 -0,3 28 15 55 30 W 0,0
14.03.2019 10:00:00 12,8 -0,1 26 14 50 27 W 0,0
14.03.2019 09:00:00 11,3 0,4 22 12 44 24 W 0,0
14.03.2019 08:00:00 9,7 0,0 21 11 37 20 W 0,0
14.03.2019 07:00:00 9,1 0,0 16 9 37 20 W -
14.03.2019 06:00:00 9,2 -0,2 16 9 37 20 W 0,0
14.03.2019 05:00:00 9,6 -0,1 18 10 42 23 W 0,0
14.03.2019 04:00:00 9,5 -0,7 15 8 31 17 W 0,0
14.03.2019 03:00:00 10,2 -0,9 13 7 41 22 W 0,0
14.03.2019 02:00:00 10,0 -0,8 15 8 37 20 W 0,0
14.03.2019 01:00:00 10,3 -0,2 16 9 35 19 W -
14.03.2019 00:00:00 10,8 -1,9 11 6 44 24 W 0,0
13.03.2019 23:00:00 11,5 -3,1 18 10 46 25 WNW 0,0
13.03.2019 22:00:00 11,9 -3,1 26 14 52 28 WNW 0,0
13.03.2019 21:00:00 12,5 -3,8 21 11 48 26 WNW 0,0
13.03.2019 20:00:00 12,5 -3,8 15 8 52 28 WNW 0,0
13.03.2019 19:00:00 13,5 -3,3 22 12 54 29 WNW -
13.03.2019 18:00:00 14,9 -3,5 22 12 68 37 WNW 0,0
13.03.2019 17:00:00 15,5 -5,0 35 19 80 43 WNW 0,0
13.03.2019 16:00:00 15,6 -4,9 34 18 80 43 WNW 0,0
13.03.2019 15:00:00 15,9 -4,7 34 18 78 42 WNW 0,0
13.03.2019 14:00:00 16,0 -4,0 26 14 68 37 WNW 0,0
13.03.2019 13:00:00 15,8 -2,7 26 14 76 41 WNW -
13.03.2019 12:00:00 14,9 -3,0 26 14 59 32 WNW 0,0
13.03.2019 11:00:00 13,8 -1,4 26 14 57 31 W 0,0
13.03.2019 10:00:00 12,9 -0,7 18 10 46 25 W 0,0

tt = temperature
td = dewpoint
ff = wind speed
fx = gusts
dd = wind direction
rr = precipitation

Next stations